sensor_id;sensor_type;location;lat;lon;timestamp;temperature;humidity
70986;DHT22;58645;43.068;25.610;2022-09-03T00:00:14;19.60;99.90
70986;DHT22;58645;43.068;25.610;2022-09-03T00:05:36;19.60;99.90
70986;DHT22;58645;43.068;25.610;2022-09-03T00:11:15;19.50;99.90
70986;DHT22;58645;43.068;25.610;2022-09-03T00:13:46;19.40;99.90
70986;DHT22;58645;43.068;25.610;2022-09-03T00:16:16;19.30;99.90
70986;DHT22;58645;43.068;25.610;2022-09-03T00:18:50;19.30;99.90
70986;DHT22;58645;43.068;25.610;2022-09-03T00:21:40;19.20;99.90
70986;DHT22;58645;43.068;25.610;2022-09-03T00:24:12;19.20;99.90
70986;DHT22;58645;43.068;25.610;2022-09-03T00:26:41;19.10;99.90
70986;DHT22;58645;43.068;25.610;2022-09-03T00:29:17;19.10;99.90
70986;DHT22;58645;43.068;25.610;2022-09-03T00:31:49;19.00;99.90
70986;DHT22;58645;43.068;25.610;2022-09-03T00:34:36;19.00;99.90
70986;DHT22;58645;43.068;25.610;2022-09-03T00:37:07;19.00;99.90
70986;DHT22;58645;43.068;25.610;2022-09-03T00:39:33;19.10;99.90
70986;DHT22;58645;43.068;25.610;2022-09-03T00:56:19;18.80;99.90
70986;DHT22;58645;43.068;25.610;2022-09-03T00:59:14;18.80;99.90
70986;DHT22;58645;43.068;25.610;2022-09-03T01:02:10;18.70;99.90
70986;DHT22;58645;43.068;25.610;2022-09-03T01:07:39;18.70;99.90
70986;DHT22;58645;43.068;25.610;2022-09-03T01:12:54;18.60;99.90
70986;DHT22;58645;43.068;25.610;2022-09-03T01:20:53;18.60;99.90
70986;DHT22;58645;43.068;25.610;2022-09-03T01:34:19;18.50;99.90
70986;DHT22;58645;43.068;25.610;2022-09-03T01:46:09;18.50;99.90
70986;DHT22;58645;43.068;25.610;2022-09-03T01:48:52;18.50;99.90
70986;DHT22;58645;43.068;25.610;2022-09-03T01:51:29;18.40;99.90
70986;DHT22;58645;43.068;25.610;2022-09-03T01:54:23;18.40;99.90
70986;DHT22;58645;43.068;25.610;2022-09-03T01:59:43;18.40;99.90
70986;DHT22;58645;43.068;25.610;2022-09-03T02:02:22;18.40;99.90
70986;DHT22;58645;43.068;25.610;2022-09-03T02:05:09;18.40;99.90
70986;DHT22;58645;43.068;25.610;2022-09-03T02:07:43;18.40;99.90
70986;DHT22;58645;43.068;25.610;2022-09-03T02:10:46;18.40;99.90
70986;DHT22;58645;43.068;25.610;2022-09-03T02:13:23;18.40;99.90
70986;DHT22;58645;43.068;25.610;2022-09-03T02:15:52;18.50;99.90
70986;DHT22;58645;43.068;25.610;2022-09-03T02:18:27;18.40;99.90
70986;DHT22;58645;43.068;25.610;2022-09-03T02:20:55;18.40;99.90
70986;DHT22;58645;43.068;25.610;2022-09-03T02:23:22;18.50;99.90
70986;DHT22;58645;43.068;25.610;2022-09-03T02:25:51;18.40;99.90
70986;DHT22;58645;43.068;25.610;2022-09-03T02:28:19;18.40;99.90
70986;DHT22;58645;43.068;25.610;2022-09-03T02:30:45;18.40;99.90
70986;DHT22;58645;43.068;25.610;2022-09-03T02:33:12;18.40;99.90
70986;DHT22;58645;43.068;25.610;2022-09-03T02:35:39;18.40;99.90
70986;DHT22;58645;43.068;25.610;2022-09-03T02:38:10;18.50;99.90
70986;DHT22;58645;43.068;25.610;2022-09-03T02:40:36;18.50;99.90
70986;DHT22;58645;43.068;25.610;2022-09-03T02:43:03;18.50;99.90
70986;DHT22;58645;43.068;25.610;2022-09-03T02:45:30;18.50;99.90
70986;DHT22;58645;43.068;25.610;2022-09-03T02:47:58;18.50;99.90
70986;DHT22;58645;43.068;25.610;2022-09-03T02:50:25;18.50;99.90
70986;DHT22;58645;43.068;25.610;2022-09-03T02:52:51;18.40;99.90
70986;DHT22;58645;43.068;25.610;2022-09-03T02:55:18;18.40;99.90
70986;DHT22;58645;43.068;25.610;2022-09-03T02:57:44;18.40;99.90
70986;DHT22;58645;43.068;25.610;2022-09-03T03:00:11;18.30;99.90
70986;DHT22;58645;43.068;25.610;2022-09-03T03:02:37;18.30;99.90
70986;DHT22;58645;43.068;25.610;2022-09-03T03:05:04;18.30;99.90
70986;DHT22;58645;43.068;25.610;2022-09-03T03:07:36;18.30;99.90
70986;DHT22;58645;43.068;25.610;2022-09-03T03:10:03;18.30;99.90
70986;DHT22;58645;43.068;25.610;2022-09-03T03:12:29;18.30;99.90
70986;DHT22;58645;43.068;25.610;2022-09-03T03:14:56;18.30;99.90
70986;DHT22;58645;43.068;25.610;2022-09-03T03:17:21;18.20;99.90
70986;DHT22;58645;43.068;25.610;2022-09-03T03:19:47;18.20;99.90
70986;DHT22;58645;43.068;25.610;2022-09-03T03:22:13;18.20;99.90
70986;DHT22;58645;43.068;25.610;2022-09-03T03:24:39;18.20;99.90
70986;DHT22;58645;43.068;25.610;2022-09-03T03:27:05;18.20;99.90
70986;DHT22;58645;43.068;25.610;2022-09-03T03:29:32;18.20;99.90
70986;DHT22;58645;43.068;25.610;2022-09-03T03:31:58;18.20;99.90
70986;DHT22;58645;43.068;25.610;2022-09-03T03:34:24;18.20;99.90
70986;DHT22;58645;43.068;25.610;2022-09-03T03:36:49;18.20;99.90
70986;DHT22;58645;43.068;25.610;2022-09-03T03:39:15;18.20;99.90
70986;DHT22;58645;43.068;25.610;2022-09-03T03:41:41;18.20;99.90
70986;DHT22;58645;43.068;25.610;2022-09-03T03:44:07;18.20;99.90
70986;DHT22;58645;43.068;25.610;2022-09-03T03:46:37;18.20;99.90
70986;DHT22;58645;43.068;25.610;2022-09-03T03:49:04;18.20;99.90
70986;DHT22;58645;43.068;25.610;2022-09-03T03:51:34;18.20;99.90
70986;DHT22;58645;43.068;25.610;2022-09-03T03:54:01;18.20;99.90
70986;DHT22;58645;43.068;25.610;2022-09-03T03:56:27;18.20;99.90
70986;DHT22;58645;43.068;25.610;2022-09-03T03:58:54;18.20;99.90
70986;DHT22;58645;43.068;25.610;2022-09-03T04:01:22;18.20;99.90
70986;DHT22;58645;43.068;25.610;2022-09-03T04:03:48;18.20;99.90
70986;DHT22;58645;43.068;25.610;2022-09-03T04:06:17;18.20;99.90
70986;DHT22;58645;43.068;25.610;2022-09-03T04:08:45;18.20;99.90
70986;DHT22;58645;43.068;25.610;2022-09-03T04:11:13;18.20;99.90
70986;DHT22;58645;43.068;25.610;2022-09-03T04:13:42;18.20;99.90
70986;DHT22;58645;43.068;25.610;2022-09-03T04:16:14;18.20;99.90
70986;DHT22;58645;43.068;25.610;2022-09-03T04:18:41;18.20;99.90
70986;DHT22;58645;43.068;25.610;2022-09-03T04:21:12;18.20;99.90
70986;DHT22;58645;43.068;25.610;2022-09-03T04:23:40;18.20;99.90
70986;DHT22;58645;43.068;25.610;2022-09-03T04:26:08;18.30;99.90
70986;DHT22;58645;43.068;25.610;2022-09-03T04:28:34;18.20;99.90
70986;DHT22;58645;43.068;25.610;2022-09-03T04:31:05;18.30;99.90
70986;DHT22;58645;43.068;25.610;2022-09-03T04:33:32;18.40;99.90
70986;DHT22;58645;43.068;25.610;2022-09-03T04:36:18;18.30;99.90
70986;DHT22;58645;43.068;25.610;2022-09-03T04:38:47;18.30;99.90
70986;DHT22;58645;43.068;25.610;2022-09-03T04:41:15;18.20;99.90
70986;DHT22;58645;43.068;25.610;2022-09-03T04:43:42;18.30;99.90
70986;DHT22;58645;43.068;25.610;2022-09-03T04:46:10;18.30;99.90
70986;DHT22;58645;43.068;25.610;2022-09-03T04:48:37;18.30;99.90
70986;DHT22;58645;43.068;25.610;2022-09-03T04:51:13;18.30;99.90
70986;DHT22;58645;43.068;25.610;2022-09-03T04:53:42;18.40;99.90
70986;DHT22;58645;43.068;25.610;2022-09-03T04:56:21;18.40;99.90
70986;DHT22;58645;43.068;25.610;2022-09-03T04:58:48;18.40;99.90
70986;DHT22;58645;43.068;25.610;2022-09-03T05:01:19;18.40;99.90
70986;DHT22;58645;43.068;25.610;2022-09-03T05:03:45;18.30;99.90
70986;DHT22;58645;43.068;25.610;2022-09-03T05:06:12;18.30;99.90
70986;DHT22;58645;43.068;25.610;2022-09-03T05:08:37;18.30;99.90
70986;DHT22;58645;43.068;25.610;2022-09-03T05:11:06;18.30;99.90
70986;DHT22;58645;43.068;25.610;2022-09-03T05:13:33;18.20;99.90
70986;DHT22;58645;43.068;25.610;2022-09-03T05:16:07;18.20;99.90
70986;DHT22;58645;43.068;25.610;2022-09-03T05:18:34;18.20;99.90
70986;DHT22;58645;43.068;25.610;2022-09-03T05:21:08;18.20;99.90
70986;DHT22;58645;43.068;25.610;2022-09-03T05:23:42;18.10;99.90
70986;DHT22;58645;43.068;25.610;2022-09-03T05:26:16;18.10;99.90
70986;DHT22;58645;43.068;25.610;2022-09-03T05:28:43;18.00;99.90
70986;DHT22;58645;43.068;25.610;2022-09-03T05:31:11;18.00;99.90
70986;DHT22;58645;43.068;25.610;2022-09-03T05:33:39;17.90;99.90
70986;DHT22;58645;43.068;25.610;2022-09-03T05:36:08;17.90;99.90
70986;DHT22;58645;43.068;25.610;2022-09-03T05:38:35;17.90;99.90
70986;DHT22;58645;43.068;25.610;2022-09-03T05:41:03;18.00;99.90
70986;DHT22;58645;43.068;25.610;2022-09-03T05:43:30;18.10;99.90
70986;DHT22;58645;43.068;25.610;2022-09-03T05:46:01;18.10;99.90
70986;DHT22;58645;43.068;25.610;2022-09-03T05:48:32;18.10;99.90
70986;DHT22;58645;43.068;25.610;2022-09-03T05:51:11;18.20;99.90
70986;DHT22;58645;43.068;25.610;2022-09-03T05:53:38;18.30;99.90
70986;DHT22;58645;43.068;25.610;2022-09-03T05:56:10;18.30;99.90
70986;DHT22;58645;43.068;25.610;2022-09-03T05:58:41;18.30;99.90
70986;DHT22;58645;43.068;25.610;2022-09-03T06:01:17;18.40;99.90
70986;DHT22;58645;43.068;25.610;2022-09-03T06:03:45;18.40;99.90
70986;DHT22;58645;43.068;25.610;2022-09-03T06:06:11;18.40;99.90
70986;DHT22;58645;43.068;25.610;2022-09-03T06:08:42;18.40;99.90
70986;DHT22;58645;43.068;25.610;2022-09-03T06:11:10;18.50;99.90
70986;DHT22;58645;43.068;25.610;2022-09-03T06:13:36;18.40;99.90
70986;DHT22;58645;43.068;25.610;2022-09-03T06:16:04;18.40;99.90
70986;DHT22;58645;43.068;25.610;2022-09-03T06:18:31;18.50;99.90
70986;DHT22;58645;43.068;25.610;2022-09-03T06:20:57;18.50;99.90
70986;DHT22;58645;43.068;25.610;2022-09-03T06:23:24;18.50;99.90
70986;DHT22;58645;43.068;25.610;2022-09-03T06:28:30;18.50;99.90
70986;DHT22;58645;43.068;25.610;2022-09-03T06:31:04;18.50;99.90
70986;DHT22;58645;43.068;25.610;2022-09-03T06:33:32;18.60;99.90
70986;DHT22;58645;43.068;25.610;2022-09-03T06:35:59;18.50;99.90
70986;DHT22;58645;43.068;25.610;2022-09-03T06:38:28;18.50;99.90
70986;DHT22;58645;43.068;25.610;2022-09-03T06:40:58;18.50;99.90
70986;DHT22;58645;43.068;25.610;2022-09-03T06:43:30;18.50;99.90
70986;DHT22;58645;43.068;25.610;2022-09-03T06:46:01;18.50;99.90
70986;DHT22;58645;43.068;25.610;2022-09-03T06:48:29;18.50;99.90
70986;DHT22;58645;43.068;25.610;2022-09-03T06:50:57;18.50;99.90
70986;DHT22;58645;43.068;25.610;2022-09-03T06:53:25;18.50;99.90
70986;DHT22;58645;43.068;25.610;2022-09-03T06:55:59;18.50;99.90
70986;DHT22;58645;43.068;25.610;2022-09-03T06:58:34;18.60;99.90
70986;DHT22;58645;43.068;25.610;2022-09-03T07:01:06;18.60;99.90
70986;DHT22;58645;43.068;25.610;2022-09-03T07:03:33;18.60;99.90
70986;DHT22;58645;43.068;25.610;2022-09-03T07:06:11;18.60;99.90
70986;DHT22;58645;43.068;25.610;2022-09-03T07:08:37;18.60;99.90
70986;DHT22;58645;43.068;25.610;2022-09-03T07:11:11;18.70;99.90
70986;DHT22;58645;43.068;25.610;2022-09-03T07:13:39;18.80;99.90
70986;DHT22;58645;43.068;25.610;2022-09-03T07:16:11;18.90;99.90
70986;DHT22;58645;43.068;25.610;2022-09-03T07:18:37;18.80;99.90
70986;DHT22;58645;43.068;25.610;2022-09-03T07:21:04;18.90;99.90
70986;DHT22;58645;43.068;25.610;2022-09-03T07:23:31;19.00;99.90
70986;DHT22;58645;43.068;25.610;2022-09-03T07:26:03;19.10;99.90
70986;DHT22;58645;43.068;25.610;2022-09-03T07:28:30;19.10;99.90
70986;DHT22;58645;43.068;25.610;2022-09-03T07:31:03;19.20;99.90
70986;DHT22;58645;43.068;25.610;2022-09-03T07:33:29;19.20;99.90
70986;DHT22;58645;43.068;25.610;2022-09-03T07:36:00;19.10;99.90
70986;DHT22;58645;43.068;25.610;2022-09-03T07:38:26;19.20;99.90
70986;DHT22;58645;43.068;25.610;2022-09-03T07:40:59;19.20;99.90
70986;DHT22;58645;43.068;25.610;2022-09-03T07:43:27;19.20;99.90
70986;DHT22;58645;43.068;25.610;2022-09-03T07:45:54;19.10;99.90
70986;DHT22;58645;43.068;25.610;2022-09-03T07:48:23;19.10;99.90
70986;DHT22;58645;43.068;25.610;2022-09-03T07:50:49;19.00;99.90
70986;DHT22;58645;43.068;25.610;2022-09-03T07:53:15;19.00;99.90
70986;DHT22;58645;43.068;25.610;2022-09-03T07:55:42;19.20;99.90
70986;DHT22;58645;43.068;25.610;2022-09-03T07:58:09;19.30;99.90
70986;DHT22;58645;43.068;25.610;2022-09-03T08:00:37;19.40;99.90
70986;DHT22;58645;43.068;25.610;2022-09-03T08:03:03;19.50;99.90
70986;DHT22;58645;43.068;25.610;2022-09-03T08:05:34;19.60;99.90
70986;DHT22;58645;43.068;25.610;2022-09-03T08:08:02;19.60;99.90
70986;DHT22;58645;43.068;25.610;2022-09-03T08:10:28;19.70;99.90
70986;DHT22;58645;43.068;25.610;2022-09-03T08:12:57;19.70;99.90
70986;DHT22;58645;43.068;25.610;2022-09-03T08:15:24;19.70;99.90
70986;DHT22;58645;43.068;25.610;2022-09-03T08:17:49;19.60;99.90
70986;DHT22;58645;43.068;25.610;2022-09-03T08:20:15;19.50;99.90
70986;DHT22;58645;43.068;25.610;2022-09-03T08:22:41;19.50;99.90
70986;DHT22;58645;43.068;25.610;2022-09-03T08:25:07;19.40;99.90
70986;DHT22;58645;43.068;25.610;2022-09-03T08:27:33;19.40;99.90
70986;DHT22;58645;43.068;25.610;2022-09-03T08:29:59;19.40;99.90
70986;DHT22;58645;43.068;25.610;2022-09-03T08:32:25;19.50;99.90
70986;DHT22;58645;43.068;25.610;2022-09-03T08:34:51;19.50;99.90
70986;DHT22;58645;43.068;25.610;2022-09-03T08:37:17;19.50;99.90
70986;DHT22;58645;43.068;25.610;2022-09-03T08:39:43;19.50;99.90
70986;DHT22;58645;43.068;25.610;2022-09-03T08:42:23;19.50;99.90
70986;DHT22;58645;43.068;25.610;2022-09-03T08:44:53;19.50;99.90
70986;DHT22;58645;43.068;25.610;2022-09-03T08:49:59;19.50;99.90
70986;DHT22;58645;43.068;25.610;2022-09-03T08:58:03;19.80;99.90
70986;DHT22;58645;43.068;25.610;2022-09-03T09:00:54;19.90;99.90
70986;DHT22;58645;43.068;25.610;2022-09-03T09:03:41;20.10;99.90
70986;DHT22;58645;43.068;25.610;2022-09-03T09:06:22;20.30;99.90
70986;DHT22;58645;43.068;25.610;2022-09-03T09:12:03;20.40;99.90
70986;DHT22;58645;43.068;25.610;2022-09-03T09:14:39;20.20;99.90
70986;DHT22;58645;43.068;25.610;2022-09-03T09:22:45;20.30;99.90
70986;DHT22;58645;43.068;25.610;2022-09-03T09:25:21;20.30;99.90
70986;DHT22;58645;43.068;25.610;2022-09-03T09:27:51;20.30;99.90
70986;DHT22;58645;43.068;25.610;2022-09-03T09:30:19;20.30;99.90
70986;DHT22;58645;43.068;25.610;2022-09-03T09:32:45;20.40;99.90
70986;DHT22;58645;43.068;25.610;2022-09-03T09:35:12;20.50;99.90
70986;DHT22;58645;43.068;25.610;2022-09-03T09:37:53;20.40;99.90
70986;DHT22;58645;43.068;25.610;2022-09-03T09:40:37;20.50;99.90
70986;DHT22;58645;43.068;25.610;2022-09-03T09:43:12;20.50;99.90
70986;DHT22;58645;43.068;25.610;2022-09-03T09:45:45;20.50;99.90
70986;DHT22;58645;43.068;25.610;2022-09-03T09:48:31;20.50;99.90
70986;DHT22;58645;43.068;25.610;2022-09-03T09:51:10;20.40;99.90
70986;DHT22;58645;43.068;25.610;2022-09-03T09:53:37;20.50;99.90
70986;DHT22;58645;43.068;25.610;2022-09-03T09:56:04;20.70;99.90
70986;DHT22;58645;43.068;25.610;2022-09-03T09:58:30;20.90;99.90
70986;DHT22;58645;43.068;25.610;2022-09-03T10:01:10;21.00;99.90
70986;DHT22;58645;43.068;25.610;2022-09-03T10:03:54;21.40;99.90
70986;DHT22;58645;43.068;25.610;2022-09-03T10:06:26;21.60;99.90
70986;DHT22;58645;43.068;25.610;2022-09-03T10:09:16;21.60;99.90
70986;DHT22;58645;43.068;25.610;2022-09-03T10:11:47;21.60;99.90
70986;DHT22;58645;43.068;25.610;2022-09-03T10:14:28;21.60;99.90
70986;DHT22;58645;43.068;25.610;2022-09-03T10:20:06;21.70;99.90
70986;DHT22;58645;43.068;25.610;2022-09-03T10:25:28;21.50;99.90
70986;DHT22;58645;43.068;25.610;2022-09-03T10:27:58;21.40;99.90
70986;DHT22;58645;43.068;25.610;2022-09-03T10:30:25;21.20;99.90
70986;DHT22;58645;43.068;25.610;2022-09-03T10:33:07;21.10;99.90
70986;DHT22;58645;43.068;25.610;2022-09-03T10:35:42;21.10;99.90
70986;DHT22;58645;43.068;25.610;2022-09-03T10:38:17;21.30;99.90
70986;DHT22;58645;43.068;25.610;2022-09-03T10:51:05;22.00;99.90
70986;DHT22;58645;43.068;25.610;2022-09-03T11:12:18;21.30;99.90
70986;DHT22;58645;43.068;25.610;2022-09-03T11:14:53;21.30;99.90
70986;DHT22;58645;43.068;25.610;2022-09-03T11:17:34;21.30;99.90
70986;DHT22;58645;43.068;25.610;2022-09-03T11:20:34;21.20;99.90
70986;DHT22;58645;43.068;25.610;2022-09-03T11:23:03;21.20;99.90
70986;DHT22;58645;43.068;25.610;2022-09-03T11:25:35;21.00;99.90
70986;DHT22;58645;43.068;25.610;2022-09-03T11:28:35;21.00;99.90
70986;DHT22;58645;43.068;25.610;2022-09-03T11:34:04;20.70;99.90
70986;DHT22;58645;43.068;25.610;2022-09-03T11:36:36;20.60;99.90
70986;DHT22;58645;43.068;25.610;2022-09-03T11:39:25;20.70;99.90
70986;DHT22;58645;43.068;25.610;2022-09-03T11:41:59;20.60;99.90
70986;DHT22;58645;43.068;25.610;2022-09-03T11:44:50;20.70;99.90
70986;DHT22;58645;43.068;25.610;2022-09-03T11:49:50;21.00;99.90
70986;DHT22;58645;43.068;25.610;2022-09-03T11:52:30;21.10;99.90
70986;DHT22;58645;43.068;25.610;2022-09-03T11:55:06;21.40;99.90
70986;DHT22;58645;43.068;25.610;2022-09-03T11:57:33;21.50;99.90
70986;DHT22;58645;43.068;25.610;2022-09-03T12:00:13;21.50;99.90
70986;DHT22;58645;43.068;25.610;2022-09-03T12:02:53;21.40;99.90
70986;DHT22;58645;43.068;25.610;2022-09-03T12:11:21;21.80;99.90
70986;DHT22;58645;43.068;25.610;2022-09-03T12:13:54;22.00;99.90
70986;DHT22;58645;43.068;25.610;2022-09-03T12:16:39;22.00;99.90
70986;DHT22;58645;43.068;25.610;2022-09-03T12:21:59;21.90;99.90
70986;DHT22;58645;43.068;25.610;2022-09-03T12:24:29;21.80;99.90
70986;DHT22;58645;43.068;25.610;2022-09-03T12:27:00;21.70;99.90
70986;DHT22;58645;43.068;25.610;2022-09-03T12:29:29;21.60;99.90
70986;DHT22;58645;43.068;25.610;2022-09-03T12:32:03;21.70;99.90
70986;DHT22;58645;43.068;25.610;2022-09-03T12:34:31;21.60;99.90
70986;DHT22;58645;43.068;25.610;2022-09-03T12:36:57;21.40;99.90
70986;DHT22;58645;43.068;25.610;2022-09-03T12:39:27;21.10;99.90
70986;DHT22;58645;43.068;25.610;2022-09-03T12:44:38;21.10;99.90
70986;DHT22;58645;43.068;25.610;2022-09-03T12:49:42;20.90;99.90
70986;DHT22;58645;43.068;25.610;2022-09-03T12:57:55;20.70;99.90
70986;DHT22;58645;43.068;25.610;2022-09-03T13:00:24;20.80;99.90
70986;DHT22;58645;43.068;25.610;2022-09-03T13:02:58;20.80;99.90
70986;DHT22;58645;43.068;25.610;2022-09-03T13:05:46;20.80;99.90
70986;DHT22;58645;43.068;25.610;2022-09-03T13:08:19;21.00;99.90
70986;DHT22;58645;43.068;25.610;2022-09-03T13:10:51;21.00;99.90
70986;DHT22;58645;43.068;25.610;2022-09-03T13:13:32;21.10;99.90
70986;DHT22;58645;43.068;25.610;2022-09-03T13:38:17;20.40;99.90
70986;DHT22;58645;43.068;25.610;2022-09-03T13:41:16;20.30;99.90
70986;DHT22;58645;43.068;25.610;2022-09-03T13:43:51;20.10;99.90
70986;DHT22;58645;43.068;25.610;2022-09-03T13:49:12;19.70;99.90
70986;DHT22;58645;43.068;25.610;2022-09-03T13:52:02;19.60;99.90
70986;DHT22;58645;43.068;25.610;2022-09-03T13:54:43;19.50;99.90
70986;DHT22;58645;43.068;25.610;2022-09-03T13:57:31;19.40;99.90
70986;DHT22;58645;43.068;25.610;2022-09-03T14:00:07;19.30;99.90
70986;DHT22;58645;43.068;25.610;2022-09-03T14:03:04;19.20;99.90
70986;DHT22;58645;43.068;25.610;2022-09-03T14:17:09;19.00;99.90
70986;DHT22;58645;43.068;25.610;2022-09-03T14:25:22;18.70;99.90
70986;DHT22;58645;43.068;25.610;2022-09-03T14:27:48;18.70;99.90
70986;DHT22;58645;43.068;25.610;2022-09-03T14:33:13;18.60;99.90
70986;DHT22;58645;43.068;25.610;2022-09-03T14:46:40;18.50;99.90
70986;DHT22;58645;43.068;25.610;2022-09-03T14:59:00;18.40;99.90
70986;DHT22;58645;43.068;25.610;2022-09-03T15:01:34;18.40;99.90
70986;DHT22;58645;43.068;25.610;2022-09-03T15:04:17;18.40;99.90
70986;DHT22;58645;43.068;25.610;2022-09-03T15:09:44;18.40;99.90
70986;DHT22;58645;43.068;25.610;2022-09-03T15:12:18;18.40;99.90
70986;DHT22;58645;43.068;25.610;2022-09-03T15:14:55;18.40;99.90
70986;DHT22;58645;43.068;25.610;2022-09-03T15:23:18;18.40;99.90
70986;DHT22;58645;43.068;25.610;2022-09-03T15:34:39;18.30;99.90
70986;DHT22;58645;43.068;25.610;2022-09-03T15:40:04;18.20;99.90
70986;DHT22;58645;43.068;25.610;2022-09-03T15:42:31;18.20;99.90
70986;DHT22;58645;43.068;25.610;2022-09-03T15:45:13;18.20;99.90
70986;DHT22;58645;43.068;25.610;2022-09-03T15:47:51;18.20;99.90
70986;DHT22;58645;43.068;25.610;2022-09-03T15:55:40;18.10;99.90
70986;DHT22;58645;43.068;25.610;2022-09-03T16:15:29;17.90;99.90
70986;DHT22;58645;43.068;25.610;2022-09-03T16:20:45;17.90;99.90
70986;DHT22;58645;43.068;25.610;2022-09-03T16:23:26;17.90;99.90
70986;DHT22;58645;43.068;25.610;2022-09-03T16:26:14;17.90;99.90
70986;DHT22;58645;43.068;25.610;2022-09-03T16:28:53;17.90;99.90
70986;DHT22;58645;43.068;25.610;2022-09-03T16:40:41;17.80;99.90
70986;DHT22;58645;43.068;25.610;2022-09-03T16:51:15;17.70;99.90
70986;DHT22;58645;43.068;25.610;2022-09-03T16:59:44;17.70;99.90
70986;DHT22;58645;43.068;25.610;2022-09-03T17:03:02;17.60;99.90
70986;DHT22;58645;43.068;25.610;2022-09-03T17:13:22;17.50;99.90
70986;DHT22;58645;43.068;25.610;2022-09-03T17:16:07;17.50;99.90
70986;DHT22;58645;43.068;25.610;2022-09-03T17:24:46;17.40;99.90
70986;DHT22;58645;43.068;25.610;2022-09-03T17:27:48;17.50;99.90
70986;DHT22;58645;43.068;25.610;2022-09-03T17:33:03;17.40;99.90
70986;DHT22;58645;43.068;25.610;2022-09-03T17:43:58;17.40;99.90
70986;DHT22;58645;43.068;25.610;2022-09-03T17:46:42;17.40;99.90
70986;DHT22;58645;43.068;25.610;2022-09-03T17:49:26;17.40;99.90
70986;DHT22;58645;43.068;25.610;2022-09-03T17:56:50;17.40;99.90
70986;DHT22;58645;43.068;25.610;2022-09-03T17:59:43;17.30;99.90
70986;DHT22;58645;43.068;25.610;2022-09-03T18:05:00;17.40;99.90
70986;DHT22;58645;43.068;25.610;2022-09-03T18:08:11;17.40;99.90
70986;DHT22;58645;43.068;25.610;2022-09-03T18:13:47;17.30;99.90
70986;DHT22;58645;43.068;25.610;2022-09-03T18:18:52;17.40;99.90
70986;DHT22;58645;43.068;25.610;2022-09-03T18:21:24;17.40;99.90
70986;DHT22;58645;43.068;25.610;2022-09-03T18:24:32;17.40;99.90
70986;DHT22;58645;43.068;25.610;2022-09-03T18:27:52;17.40;99.90
70986;DHT22;58645;43.068;25.610;2022-09-03T18:30:37;17.40;99.90
70986;DHT22;58645;43.068;25.610;2022-09-03T18:33:24;17.40;99.90
70986;DHT22;58645;43.068;25.610;2022-09-03T18:36:09;17.40;99.90
70986;DHT22;58645;43.068;25.610;2022-09-03T18:42:58;17.50;99.90
70986;DHT22;58645;43.068;25.610;2022-09-03T18:48:32;17.50;99.90
70986;DHT22;58645;43.068;25.610;2022-09-03T18:51:45;17.50;99.90
70986;DHT22;58645;43.068;25.610;2022-09-03T18:57:49;17.50;99.90
70986;DHT22;58645;43.068;25.610;2022-09-03T19:01:26;17.50;99.90
70986;DHT22;58645;43.068;25.610;2022-09-03T19:07:24;17.50;99.90
70986;DHT22;58645;43.068;25.610;2022-09-03T19:10:16;17.50;99.90
70986;DHT22;58645;43.068;25.610;2022-09-03T19:13:11;17.50;99.90
70986;DHT22;58645;43.068;25.610;2022-09-03T19:16:16;17.50;99.90
70986;DHT22;58645;43.068;25.610;2022-09-03T19:22:33;17.50;99.90
70986;DHT22;58645;43.068;25.610;2022-09-03T19:25:18;17.50;99.90
70986;DHT22;58645;43.068;25.610;2022-09-03T19:28:28;17.50;99.90
70986;DHT22;58645;43.068;25.610;2022-09-03T19:37:34;17.40;99.90
70986;DHT22;58645;43.068;25.610;2022-09-03T19:40:41;17.40;99.90
70986;DHT22;58645;43.068;25.610;2022-09-03T19:46:52;17.30;99.90
70986;DHT22;58645;43.068;25.610;2022-09-03T19:55:33;17.30;99.90
70986;DHT22;58645;43.068;25.610;2022-09-03T19:58:21;17.30;99.90
70986;DHT22;58645;43.068;25.610;2022-09-03T20:01:08;17.30;99.90
70986;DHT22;58645;43.068;25.610;2022-09-03T20:03:58;17.30;99.90
70986;DHT22;58645;43.068;25.610;2022-09-03T20:06:44;17.20;99.90
70986;DHT22;58645;43.068;25.610;2022-09-03T20:09:33;17.30;99.90
70986;DHT22;58645;43.068;25.610;2022-09-03T20:12:21;17.30;99.90
70986;DHT22;58645;43.068;25.610;2022-09-03T20:14:48;17.30;99.90
70986;DHT22;58645;43.068;25.610;2022-09-03T20:20:12;17.40;99.90
70986;DHT22;58645;43.068;25.610;2022-09-03T20:23:04;17.30;99.90
70986;DHT22;58645;43.068;25.610;2022-09-03T20:25:48;17.30;99.90
70986;DHT22;58645;43.068;25.610;2022-09-03T20:28:34;17.40;99.90
70986;DHT22;58645;43.068;25.610;2022-09-03T20:34:15;17.40;99.90
70986;DHT22;58645;43.068;25.610;2022-09-03T20:45:19;17.30;99.90
70986;DHT22;58645;43.068;25.610;2022-09-03T20:48:09;17.30;99.90
70986;DHT22;58645;43.068;25.610;2022-09-03T20:50:38;17.30;99.90
70986;DHT22;58645;43.068;25.610;2022-09-03T20:55:56;17.30;99.90
70986;DHT22;58645;43.068;25.610;2022-09-03T21:01:09;17.30;99.90
70986;DHT22;58645;43.068;25.610;2022-09-03T21:09:08;17.10;99.90
70986;DHT22;58645;43.068;25.610;2022-09-03T21:14:37;17.00;99.90
70986;DHT22;58645;43.068;25.610;2022-09-03T21:17:19;17.00;99.90
70986;DHT22;58645;43.068;25.610;2022-09-03T21:25:35;16.80;99.90
70986;DHT22;58645;43.068;25.610;2022-09-03T21:28:17;16.70;99.90
70986;DHT22;58645;43.068;25.610;2022-09-03T21:30:47;16.60;99.90
70986;DHT22;58645;43.068;25.610;2022-09-03T21:33:19;16.50;99.90
70986;DHT22;58645;43.068;25.610;2022-09-03T21:35:58;16.50;99.90
70986;DHT22;58645;43.068;25.610;2022-09-03T21:38:31;16.40;99.90
70986;DHT22;58645;43.068;25.610;2022-09-03T21:46:50;16.40;99.90
70986;DHT22;58645;43.068;25.610;2022-09-03T21:49:29;16.30;99.90
70986;DHT22;58645;43.068;25.610;2022-09-03T21:51:59;16.30;99.90
70986;DHT22;58645;43.068;25.610;2022-09-03T21:54:31;16.30;99.90
70986;DHT22;58645;43.068;25.610;2022-09-03T21:57:30;16.30;99.90
70986;DHT22;58645;43.068;25.610;2022-09-03T22:00:17;16.30;99.90
70986;DHT22;58645;43.068;25.610;2022-09-03T22:02:44;16.40;99.90
70986;DHT22;58645;43.068;25.610;2022-09-03T22:05:12;16.40;99.90
70986;DHT22;58645;43.068;25.610;2022-09-03T22:08:09;16.40;99.90
70986;DHT22;58645;43.068;25.610;2022-09-03T22:13:29;16.50;99.90
70986;DHT22;58645;43.068;25.610;2022-09-03T22:18:29;16.40;99.90
70986;DHT22;58645;43.068;25.610;2022-09-03T22:21:07;16.40;99.90
70986;DHT22;58645;43.068;25.610;2022-09-03T22:26:56;16.30;99.90